sensor_id;sensor_type;location;lat;lon;timestamp;pressure;altitude;pressure_sealevel;temperature;humidity
14689;BME280;7432;48.728;9.154;2023-05-17T00:01:25;143818.47;;;8.10;66.64
14689;BME280;7432;48.728;9.154;2023-05-17T00:03:52;143785.88;;;7.97;67.57
14689;BME280;7432;48.728;9.154;2023-05-17T00:06:20;143767.78;;;7.89;66.75
14689;BME280;7432;48.728;9.154;2023-05-17T00:08:47;143772.59;;;7.91;68.18
14689;BME280;7432;48.728;9.154;2023-05-17T00:11:13;143788.31;;;7.98;67.16
14689;BME280;7432;48.728;9.154;2023-05-17T00:13:41;143783.44;;;7.96;68.06
14689;BME280;7432;48.728;9.154;2023-05-17T00:16:07;143783.44;;;7.96;66.94
14689;BME280;7432;48.728;9.154;2023-05-17T00:18:34;143784.66;;;7.96;67.53
14689;BME280;7432;48.728;9.154;2023-05-17T00:21:00;143747.25;;;7.81;67.76
14689;BME280;7432;48.728;9.154;2023-05-17T00:23:27;143754.50;;;7.84;67.90
14689;BME280;7432;48.728;9.154;2023-05-17T00:25:53;143762.91;;;7.87;68.05
14689;BME280;7432;48.728;9.154;2023-05-17T00:28:19;143754.50;;;7.84;68.32
14689;BME280;7432;48.728;9.154;2023-05-17T00:30:47;143744.81;;;7.80;69.04
14689;BME280;7432;48.728;9.154;2023-05-17T00:33:14;143747.25;;;7.81;68.03
14689;BME280;7432;48.728;9.154;2023-05-17T00:35:40;143727.94;;;7.72;69.22
14689;BME280;7432;48.728;9.154;2023-05-17T00:38:06;143725.50;;;7.71;68.58
14689;BME280;7432;48.728;9.154;2023-05-17T00:40:33;143724.28;;;7.71;69.37
14689;BME280;7432;48.728;9.154;2023-05-17T00:42:59;143721.91;;;7.70;68.99
14689;BME280;7432;48.728;9.154;2023-05-17T00:45:26;143718.25;;;7.68;69.53
14689;BME280;7432;48.728;9.154;2023-05-17T00:47:53;143727.94;;;7.72;70.22
14689;BME280;7432;48.728;9.154;2023-05-17T00:50:20;143715.88;;;7.67;69.84
14689;BME280;7432;48.728;9.154;2023-05-17T00:52:46;143720.69;;;7.69;69.73
14689;BME280;7432;48.728;9.154;2023-05-17T00:55:12;143712.22;;;7.66;69.45
14689;BME280;7432;48.728;9.154;2023-05-17T00:57:39;143712.22;;;7.66;70.51
14689;BME280;7432;48.728;9.154;2023-05-17T01:00:07;143714.66;;;7.67;69.32
14689;BME280;7432;48.728;9.154;2023-05-17T01:02:33;143712.22;;;7.66;68.60
14689;BME280;7432;48.728;9.154;2023-05-17T01:05:01;143714.66;;;7.67;70.50
14689;BME280;7432;48.728;9.154;2023-05-17T01:07:27;143714.66;;;7.67;69.44
14689;BME280;7432;48.728;9.154;2023-05-17T01:09:54;143688.09;;;7.56;69.98
14689;BME280;7432;48.728;9.154;2023-05-17T01:12:31;143677.19;;;7.51;69.59
14689;BME280;7432;48.728;9.154;2023-05-17T01:15:07;143677.19;;;7.51;70.78
14689;BME280;7432;48.728;9.154;2023-05-17T01:17:39;143689.31;;;7.56;70.20
14689;BME280;7432;48.728;9.154;2023-05-17T01:20:13;143692.91;;;7.58;70.14
14689;BME280;7432;48.728;9.154;2023-05-17T01:22:49;143689.31;;;7.56;70.44
14689;BME280;7432;48.728;9.154;2023-05-17T01:25:27;143682.06;;;7.53;71.31
14689;BME280;7432;48.728;9.154;2023-05-17T01:27:58;143685.66;;;7.55;71.28
14689;BME280;7432;48.728;9.154;2023-05-17T01:30:28;143689.31;;;7.56;70.25
14689;BME280;7432;48.728;9.154;2023-05-17T01:32:56;143690.47;;;7.57;71.19
14689;BME280;7432;48.728;9.154;2023-05-17T01:35:23;143694.13;;;7.58;70.69
14689;BME280;7432;48.728;9.154;2023-05-17T01:37:51;143677.19;;;7.51;70.07
14689;BME280;7432;48.728;9.154;2023-05-17T01:40:17;143672.38;;;7.49;70.54
14689;BME280;7432;48.728;9.154;2023-05-17T01:42:47;143671.16;;;7.49;71.86
14689;BME280;7432;48.728;9.154;2023-05-17T01:45:21;143676.03;;;7.51;71.47
14689;BME280;7432;48.728;9.154;2023-05-17T01:47:55;143674.81;;;7.50;71.88
14689;BME280;7432;48.728;9.154;2023-05-17T01:50:28;143656.72;;;7.43;71.55
14689;BME280;7432;48.728;9.154;2023-05-17T01:53:01;143671.16;;;7.49;70.92
14689;BME280;7432;48.728;9.154;2023-05-17T01:55:33;143626.50;;;7.30;71.34
14689;BME280;7432;48.728;9.154;2023-05-17T01:58:05;143632.53;;;7.33;72.34
14689;BME280;7432;48.728;9.154;2023-05-17T02:00:33;143618.09;;;7.27;72.35
14689;BME280;7432;48.728;9.154;2023-05-17T02:03:01;143614.44;;;7.25;72.12
14689;BME280;7432;48.728;9.154;2023-05-17T02:05:28;143607.22;;;7.22;72.74
14689;BME280;7432;48.728;9.154;2023-05-17T02:07:54;143610.84;;;7.24;72.58
14689;BME280;7432;48.728;9.154;2023-05-17T02:10:21;143591.53;;;7.15;72.88
14689;BME280;7432;48.728;9.154;2023-05-17T02:12:47;143578.28;;;7.10;73.12
14689;BME280;7432;48.728;9.154;2023-05-17T02:15:13;143566.16;;;7.05;72.92
14689;BME280;7432;48.728;9.154;2023-05-17T02:17:42;143566.16;;;7.05;73.21
14689;BME280;7432;48.728;9.154;2023-05-17T02:20:08;143556.53;;;7.01;74.97
14689;BME280;7432;48.728;9.154;2023-05-17T02:22:35;143561.34;;;7.03;73.34
14689;BME280;7432;48.728;9.154;2023-05-17T02:25:02;143561.34;;;7.03;75.15
14689;BME280;7432;48.728;9.154;2023-05-17T02:27:28;143557.75;;;7.01;73.85
14689;BME280;7432;48.728;9.154;2023-05-17T02:29:55;143561.34;;;7.03;73.42
14689;BME280;7432;48.728;9.154;2023-05-17T02:32:21;143558.97;;;7.02;74.31
14689;BME280;7432;48.728;9.154;2023-05-17T02:34:49;143545.69;;;6.96;74.13
14689;BME280;7432;48.728;9.154;2023-05-17T02:37:15;143548.06;;;6.97;73.99
14689;BME280;7432;48.728;9.154;2023-05-17T02:39:41;143527.56;;;6.89;74.21
14689;BME280;7432;48.728;9.154;2023-05-17T02:42:08;143521.53;;;6.86;75.10
14689;BME280;7432;48.728;9.154;2023-05-17T02:44:34;143516.72;;;6.84;74.14
14689;BME280;7432;48.728;9.154;2023-05-17T02:47:00;143504.66;;;6.79;74.73
14689;BME280;7432;48.728;9.154;2023-05-17T02:49:27;143469.66;;;6.65;75.70
14689;BME280;7432;48.728;9.154;2023-05-17T02:51:54;143486.59;;;6.72;75.49
14689;BME280;7432;48.728;9.154;2023-05-17T02:54:21;143492.59;;;6.74;75.61
14689;BME280;7432;48.728;9.154;2023-05-17T02:56:47;143481.72;;;6.70;75.39
14689;BME280;7432;48.728;9.154;2023-05-17T02:59:14;143470.88;;;6.65;76.25
14689;BME280;7432;48.728;9.154;2023-05-17T03:01:40;143456.41;;;6.59;75.83
14689;BME280;7432;48.728;9.154;2023-05-17T03:04:07;143457.63;;;6.60;75.99
14689;BME280;7432;48.728;9.154;2023-05-17T03:06:33;143457.63;;;6.60;76.76
14689;BME280;7432;48.728;9.154;2023-05-17T03:09:01;143444.34;;;6.54;76.82
14689;BME280;7432;48.728;9.154;2023-05-17T03:11:27;143448.00;;;6.55;76.53
14689;BME280;7432;48.728;9.154;2023-05-17T03:13:53;143449.16;;;6.56;77.16
14689;BME280;7432;48.728;9.154;2023-05-17T03:16:20;143454.00;;;6.58;76.85
14689;BME280;7432;48.728;9.154;2023-05-17T03:18:46;143444.34;;;6.54;76.64
14689;BME280;7432;48.728;9.154;2023-05-17T03:21:12;143419.03;;;6.43;77.35
14689;BME280;7432;48.728;9.154;2023-05-17T03:23:39;143427.47;;;6.47;76.97
14689;BME280;7432;48.728;9.154;2023-05-17T03:26:06;143409.34;;;6.39;77.67
14689;BME280;7432;48.728;9.154;2023-05-17T03:28:33;143419.03;;;6.43;77.39
14689;BME280;7432;48.728;9.154;2023-05-17T03:30:59;143413.00;;;6.41;78.59
14689;BME280;7432;48.728;9.154;2023-05-17T03:33:25;143388.91;;;6.31;77.55
14689;BME280;7432;48.728;9.154;2023-05-17T03:35:52;143388.91;;;6.31;78.96
14689;BME280;7432;48.728;9.154;2023-05-17T03:38:18;143374.41;;;6.25;79.47
14689;BME280;7432;48.728;9.154;2023-05-17T03:40:45;143363.53;;;6.20;78.95
14689;BME280;7432;48.728;9.154;2023-05-17T03:43:12;143387.69;;;6.30;78.50
14689;BME280;7432;48.728;9.154;2023-05-17T03:45:39;143396.09;;;6.34;78.20
14689;BME280;7432;48.728;9.154;2023-05-17T03:48:05;143404.53;;;6.37;77.88
14689;BME280;7432;48.728;9.154;2023-05-17T03:50:31;143396.09;;;6.34;78.30
14689;BME280;7432;48.728;9.154;2023-05-17T03:52:58;143387.69;;;6.30;79.51
14689;BME280;7432;48.728;9.154;2023-05-17T03:55:24;143398.53;;;6.35;78.85
14689;BME280;7432;48.728;9.154;2023-05-17T03:57:51;143398.53;;;6.35;78.72
14689;BME280;7432;48.728;9.154;2023-05-17T04:00:19;143391.28;;;6.32;79.64
14689;BME280;7432;48.728;9.154;2023-05-17T04:02:46;143409.34;;;6.39;79.19
14689;BME280;7432;48.728;9.154;2023-05-17T04:05:12;143429.84;;;6.48;79.33
14689;BME280;7432;48.728;9.154;2023-05-17T04:07:39;143439.53;;;6.52;79.61
14689;BME280;7432;48.728;9.154;2023-05-17T04:10:06;143460.03;;;6.61;77.54
14689;BME280;7432;48.728;9.154;2023-05-17T04:12:32;143472.09;;;6.66;78.03
14689;BME280;7432;48.728;9.154;2023-05-17T04:14:59;143492.59;;;6.74;77.79
14689;BME280;7432;48.728;9.154;2023-05-17T04:17:27;143504.66;;;6.79;76.97
14689;BME280;7432;48.728;9.154;2023-05-17T04:19:53;143519.16;;;6.85;77.13
14689;BME280;7432;48.728;9.154;2023-05-17T04:22:20;143508.25;;;6.81;78.61
14689;BME280;7432;48.728;9.154;2023-05-17T04:24:46;143538.44;;;6.93;78.80
14689;BME280;7432;48.728;9.154;2023-05-17T04:27:12;143543.25;;;6.95;79.10
14689;BME280;7432;48.728;9.154;2023-05-17T04:29:39;143557.75;;;7.01;78.24
14689;BME280;7432;48.728;9.154;2023-05-17T04:32:06;143573.41;;;7.08;78.09
14689;BME280;7432;48.728;9.154;2023-05-17T04:34:34;143586.69;;;7.13;79.11
14689;BME280;7432;48.728;9.154;2023-05-17T04:37:00;143602.41;;;7.20;77.27
14689;BME280;7432;48.728;9.154;2023-05-17T04:39:27;143616.88;;;7.26;77.60
14689;BME280;7432;48.728;9.154;2023-05-17T04:41:54;143636.19;;;7.34;76.17
14689;BME280;7432;48.728;9.154;2023-05-17T04:44:20;143645.81;;;7.38;75.99
14689;BME280;7432;48.728;9.154;2023-05-17T04:46:46;143660.31;;;7.44;76.30
14689;BME280;7432;48.728;9.154;2023-05-17T04:49:13;143678.41;;;7.52;75.95
14689;BME280;7432;48.728;9.154;2023-05-17T04:51:41;143694.13;;;7.58;75.41
14689;BME280;7432;48.728;9.154;2023-05-17T04:54:07;143712.22;;;7.66;74.74
14689;BME280;7432;48.728;9.154;2023-05-17T04:56:34;143717.03;;;7.68;74.13
14689;BME280;7432;48.728;9.154;2023-05-17T04:59:00;143733.97;;;7.75;74.28
14689;BME280;7432;48.728;9.154;2023-05-17T05:01:27;143752.06;;;7.83;73.75
14689;BME280;7432;48.728;9.154;2023-05-17T05:03:55;143771.38;;;7.91;73.46
14689;BME280;7432;48.728;9.154;2023-05-17T05:06:21;143785.88;;;7.97;74.13
14689;BME280;7432;48.728;9.154;2023-05-17T05:08:49;143806.41;;;8.05;74.34
14689;BME280;7432;48.728;9.154;2023-05-17T05:11:15;143832.97;;;8.16;74.06
14689;BME280;7432;48.728;9.154;2023-05-17T05:13:41;143855.91;;;8.26;73.19
14689;BME280;7432;48.728;9.154;2023-05-17T05:16:08;143839.00;;;8.19;71.25
14689;BME280;7432;48.728;9.154;2023-05-17T05:18:34;143834.16;;;8.17;72.28
14689;BME280;7432;48.728;9.154;2023-05-17T05:21:00;143852.31;;;8.24;72.15
14689;BME280;7432;48.728;9.154;2023-05-17T05:23:27;143898.25;;;8.44;72.52
14689;BME280;7432;48.728;9.154;2023-05-17T05:25:55;143945.38;;;8.63;71.68
14689;BME280;7432;48.728;9.154;2023-05-17T05:28:21;143971.91;;;8.74;70.76
14689;BME280;7432;48.728;9.154;2023-05-17T05:30:47;144017.84;;;8.93;70.10
14689;BME280;7432;48.728;9.154;2023-05-17T05:33:14;144026.31;;;8.97;69.55
14689;BME280;7432;48.728;9.154;2023-05-17T05:35:40;144045.63;;;9.05;69.64
14689;BME280;7432;48.728;9.154;2023-05-17T05:38:06;144037.16;;;9.02;70.22
14689;BME280;7432;48.728;9.154;2023-05-17T05:40:33;144027.53;;;8.98;69.64
14689;BME280;7432;48.728;9.154;2023-05-17T05:43:00;144004.53;;;8.88;69.44
14689;BME280;7432;48.728;9.154;2023-05-17T05:45:27;143991.28;;;8.82;70.31
14689;BME280;7432;48.728;9.154;2023-05-17T05:47:53;144020.25;;;8.94;69.70
14689;BME280;7432;48.728;9.154;2023-05-17T05:50:20;143992.47;;;8.83;69.24
14689;BME280;7432;48.728;9.154;2023-05-17T05:52:46;143988.84;;;8.81;69.65
14689;BME280;7432;48.728;9.154;2023-05-17T05:55:13;144009.41;;;8.90;68.99
14689;BME280;7432;48.728;9.154;2023-05-17T05:57:39;144026.31;;;8.97;69.81
14689;BME280;7432;48.728;9.154;2023-05-17T06:00:08;144049.28;;;9.07;68.81
14689;BME280;7432;48.728;9.154;2023-05-17T06:02:36;144089.19;;;9.23;69.06
14689;BME280;7432;48.728;9.154;2023-05-17T06:05:03;144096.41;;;9.26;69.25
14689;BME280;7432;48.728;9.154;2023-05-17T06:07:30;144280.19;;;10.03;67.63
14689;BME280;7432;48.728;9.154;2023-05-17T06:09:56;144462.97;;;10.79;64.19
14689;BME280;7432;48.728;9.154;2023-05-17T06:12:22;144639.75;;;11.53;60.82
14689;BME280;7432;48.728;9.154;2023-05-17T06:14:49;144969.31;;;12.90;56.34
14689;BME280;7432;48.728;9.154;2023-05-17T06:17:16;145380.69;;;14.61;52.95
14689;BME280;7432;48.728;9.154;2023-05-17T06:19:43;145688.00;;;15.88;48.70
14689;BME280;7432;48.728;9.154;2023-05-17T06:22:09;145936.03;;;16.91;46.08
14689;BME280;7432;48.728;9.154;2023-05-17T06:24:35;146246.31;;;18.20;43.76
14689;BME280;7432;48.728;9.154;2023-05-17T06:27:02;146587.44;;;19.61;41.14
14689;BME280;7432;48.728;9.154;2023-05-17T06:29:28;146623.97;;;19.76;39.28
14689;BME280;7432;48.728;9.154;2023-05-17T06:31:55;146541.13;;;19.42;40.16
14689;BME280;7432;48.728;9.154;2023-05-17T06:34:23;146744.69;;;20.26;39.31
14689;BME280;7432;48.728;9.154;2023-05-17T06:36:49;147010.59;;;21.36;37.54
14689;BME280;7432;48.728;9.154;2023-05-17T06:39:16;147065.47;;;21.59;36.30
14689;BME280;7432;48.728;9.154;2023-05-17T06:41:42;146973.97;;;21.21;36.69
14689;BME280;7432;48.728;9.154;2023-05-17T06:44:09;146741.00;;;20.25;37.45
14689;BME280;7432;48.728;9.154;2023-05-17T06:46:35;146458.22;;;19.08;40.70
14689;BME280;7432;48.728;9.154;2023-05-17T06:49:02;146632.53;;;19.80;38.59
14689;BME280;7432;48.728;9.154;2023-05-17T06:51:29;146413.19;;;18.89;40.64
14689;BME280;7432;48.728;9.154;2023-05-17T06:53:56;146765.44;;;20.35;38.06
14689;BME280;7432;48.728;9.154;2023-05-17T06:56:22;146922.72;;;21.00;37.05
14689;BME280;7432;48.728;9.154;2023-05-17T06:58:48;146925.19;;;21.01;36.30
14689;BME280;7432;48.728;9.154;2023-05-17T07:01:15;147037.44;;;21.47;35.84
14689;BME280;7432;48.728;9.154;2023-05-17T07:03:42;147197.31;;;22.13;35.40
14689;BME280;7432;48.728;9.154;2023-05-17T07:06:09;147602.91;;;23.81;33.58
14689;BME280;7432;48.728;9.154;2023-05-17T07:08:37;147598.03;;;23.79;33.17
14689;BME280;7432;48.728;9.154;2023-05-17T07:11:04;147714.16;;;24.27;32.22
14689;BME280;7432;48.728;9.154;2023-05-17T07:13:30;147469.69;;;23.26;32.90
14689;BME280;7432;48.728;9.154;2023-05-17T07:15:57;147052.06;;;21.53;34.75
14689;BME280;7432;48.728;9.154;2023-05-17T07:18:23;146978.84;;;21.23;35.46
14689;BME280;7432;48.728;9.154;2023-05-17T07:20:50;147048.41;;;21.52;35.69
14689;BME280;7432;48.728;9.154;2023-05-17T07:23:16;147307.22;;;22.59;34.35
14689;BME280;7432;48.728;9.154;2023-05-17T07:25:44;147326.81;;;22.67;33.23
14689;BME280;7432;48.728;9.154;2023-05-17T07:28:10;146914.16;;;20.96;36.46
14689;BME280;7432;48.728;9.154;2023-05-17T07:30:36;146673.97;;;19.97;37.85
14689;BME280;7432;48.728;9.154;2023-05-17T07:33:03;146936.13;;;21.05;36.93
14689;BME280;7432;48.728;9.154;2023-05-17T07:35:29;146687.38;;;20.02;38.86
14689;BME280;7432;48.728;9.154;2023-05-17T07:37:56;146701.97;;;20.08;38.02
14689;BME280;7432;48.728;9.154;2023-05-17T07:40:22;146666.66;;;19.94;38.49
14689;BME280;7432;48.728;9.154;2023-05-17T07:42:50;146901.97;;;20.91;37.18
14689;BME280;7432;48.728;9.154;2023-05-17T07:45:17;146780.06;;;20.41;37.38
14689;BME280;7432;48.728;9.154;2023-05-17T07:47:43;146823.94;;;20.59;38.07
14689;BME280;7432;48.728;9.154;2023-05-17T07:50:10;146723.91;;;20.18;37.38
14689;BME280;7432;48.728;9.154;2023-05-17T07:52:37;146437.53;;;18.99;39.55
14689;BME280;7432;48.728;9.154;2023-05-17T07:55:04;146699.56;;;20.07;38.93
14689;BME280;7432;48.728;9.154;2023-05-17T07:57:30;146792.25;;;20.46;38.17
14689;BME280;7432;48.728;9.154;2023-05-17T07:59:58;146662.97;;;19.92;38.00
14689;BME280;7432;48.728;9.154;2023-05-17T08:02:24;146878.84;;;20.82;38.65
14689;BME280;7432;48.728;9.154;2023-05-17T08:04:51;147415.94;;;23.03;34.98
14689;BME280;7432;48.728;9.154;2023-05-17T08:07:17;147488.00;;;23.33;33.35
14689;BME280;7432;48.728;9.154;2023-05-17T08:09:43;147301.13;;;22.56;34.23
14689;BME280;7432;48.728;9.154;2023-05-17T08:12:10;147141.22;;;21.90;35.73
14689;BME280;7432;48.728;9.154;2023-05-17T08:14:37;147415.94;;;23.03;34.16
14689;BME280;7432;48.728;9.154;2023-05-17T08:17:05;147869.53;;;24.91;32.11
14689;BME280;7432;48.728;9.154;2023-05-17T08:19:31;148286.84;;;26.63;29.68
14689;BME280;7432;48.728;9.154;2023-05-17T08:21:57;148414.25;;;27.15;28.71
14689;BME280;7432;48.728;9.154;2023-05-17T08:24:24;148609.06;;;27.95;28.37
14689;BME280;7432;48.728;9.154;2023-05-17T08:26:51;148375.06;;;26.99;28.52
14689;BME280;7432;48.728;9.154;2023-05-17T08:29:18;148081.19;;;25.78;28.83
14689;BME280;7432;48.728;9.154;2023-05-17T08:31:44;147523.50;;;23.48;32.25
14689;BME280;7432;48.728;9.154;2023-05-17T08:34:12;147176.63;;;22.05;34.50
14689;BME280;7432;48.728;9.154;2023-05-17T08:36:38;147030.13;;;21.44;35.92
14689;BME280;7432;48.728;9.154;2023-05-17T08:39:05;146670.28;;;19.95;37.20
14689;BME280;7432;48.728;9.154;2023-05-17T08:41:32;147044.72;;;21.50;35.46
14689;BME280;7432;48.728;9.154;2023-05-17T08:43:59;147442.81;;;23.15;34.38
14689;BME280;7432;48.728;9.154;2023-05-17T08:46:25;147917.22;;;25.10;30.74
14689;BME280;7432;48.728;9.154;2023-05-17T08:48:52;148039.56;;;25.61;31.38
14689;BME280;7432;48.728;9.154;2023-05-17T08:51:21;148171.78;;;26.15;30.23
14689;BME280;7432;48.728;9.154;2023-05-17T08:53:48;148351.78;;;26.89;29.26
14689;BME280;7432;48.728;9.154;2023-05-17T08:56:15;148075.06;;;25.75;30.25
14689;BME280;7432;48.728;9.154;2023-05-17T08:58:43;147420.84;;;23.06;33.42
14689;BME280;7432;48.728;9.154;2023-05-17T09:01:12;146776.38;;;20.39;37.73
14689;BME280;7432;48.728;9.154;2023-05-17T09:03:40;146567.94;;;19.53;40.40
14689;BME280;7432;48.728;9.154;2023-05-17T09:06:08;146179.41;;;17.92;42.31
14689;BME280;7432;48.728;9.154;2023-05-17T09:08:37;146402.25;;;18.84;41.96
14689;BME280;7432;48.728;9.154;2023-05-17T09:11:03;146602.03;;;19.67;39.65
14689;BME280;7432;48.728;9.154;2023-05-17T09:13:30;146354.75;;;18.65;41.70
14689;BME280;7432;48.728;9.154;2023-05-17T09:15:56;146520.38;;;19.33;41.75
14689;BME280;7432;48.728;9.154;2023-05-17T09:18:28;146625.19;;;19.77;39.49
14689;BME280;7432;48.728;9.154;2023-05-17T09:20:54;146811.75;;;20.54;39.03
14689;BME280;7432;48.728;9.154;2023-05-17T09:23:21;146625.19;;;19.77;39.15
14689;BME280;7432;48.728;9.154;2023-05-17T09:25:49;146431.44;;;18.97;40.03
14689;BME280;7432;48.728;9.154;2023-05-17T09:28:17;146069.84;;;17.47;43.43
14689;BME280;7432;48.728;9.154;2023-05-17T09:30:47;146214.69;;;18.07;43.08
14689;BME280;7432;48.728;9.154;2023-05-17T09:33:14;146220.75;;;18.09;42.18
14689;BME280;7432;48.728;9.154;2023-05-17T09:35:40;146226.84;;;18.12;42.82
14689;BME280;7432;48.728;9.154;2023-05-17T09:38:09;146421.72;;;18.92;41.10
14689;BME280;7432;48.728;9.154;2023-05-17T09:40:39;146454.59;;;19.06;39.69
14689;BME280;7432;48.728;9.154;2023-05-17T09:43:07;146533.81;;;19.39;39.41
14689;BME280;7432;48.728;9.154;2023-05-17T09:45:34;147304.78;;;22.58;35.25
14689;BME280;7432;48.728;9.154;2023-05-17T09:48:11;147640.78;;;23.96;34.02
14689;BME280;7432;48.728;9.154;2023-05-17T09:50:43;147816.88;;;24.69;30.63
14689;BME280;7432;48.728;9.154;2023-05-17T09:53:25;147566.28;;;23.66;32.06
14689;BME280;7432;48.728;9.154;2023-05-17T09:55:53;147687.28;;;24.15;33.30
14689;BME280;7432;48.728;9.154;2023-05-17T09:58:22;148015.13;;;25.51;30.37
14689;BME280;7432;48.728;9.154;2023-05-17T10:00:50;148193.81;;;26.24;28.96
14689;BME280;7432;48.728;9.154;2023-05-17T10:03:17;147946.56;;;25.22;28.21
14689;BME280;7432;48.728;9.154;2023-05-17T10:05:45;147287.69;;;22.51;31.94
14689;BME280;7432;48.728;9.154;2023-05-17T10:08:13;146941.06;;;21.07;34.98
14689;BME280;7432;48.728;9.154;2023-05-17T10:10:40;146841.00;;;20.66;35.11
14689;BME280;7432;48.728;9.154;2023-05-17T10:13:07;146848.31;;;20.69;35.42
14689;BME280;7432;48.728;9.154;2023-05-17T10:15:37;147270.56;;;22.43;32.91
14689;BME280;7432;48.728;9.154;2023-05-17T10:18:06;147610.25;;;23.84;30.26
14689;BME280;7432;48.728;9.154;2023-05-17T10:20:34;147698.31;;;24.20;29.17
14689;BME280;7432;48.728;9.154;2023-05-17T10:23:01;147648.13;;;23.99;29.53
14689;BME280;7432;48.728;9.154;2023-05-17T10:25:29;147363.44;;;22.82;30.41
14689;BME280;7432;48.728;9.154;2023-05-17T10:27:57;147240.06;;;22.31;31.57
14689;BME280;7432;48.728;9.154;2023-05-17T10:30:24;146705.66;;;20.10;33.59
14689;BME280;7432;48.728;9.154;2023-05-17T10:32:53;146411.94;;;18.88;35.52
14689;BME280;7432;48.728;9.154;2023-05-17T10:35:19;146189.13;;;17.96;37.43
14689;BME280;7432;48.728;9.154;2023-05-17T10:37:46;145998.06;;;17.17;38.84
14689;BME280;7432;48.728;9.154;2023-05-17T10:40:13;145728.13;;;16.05;42.34
14689;BME280;7432;48.728;9.154;2023-05-17T10:42:47;145792.53;;;16.32;42.24
14689;BME280;7432;48.728;9.154;2023-05-17T10:45:19;145857.00;;;16.58;42.75
14689;BME280;7432;48.728;9.154;2023-05-17T10:47:45;145807.13;;;16.38;43.30
14689;BME280;7432;48.728;9.154;2023-05-17T10:50:20;145947.00;;;16.96;40.54
14689;BME280;7432;48.728;9.154;2023-05-17T10:52:48;146226.84;;;18.12;39.96
14689;BME280;7432;48.728;9.154;2023-05-17T10:55:18;146220.75;;;18.09;40.05
14689;BME280;7432;48.728;9.154;2023-05-17T10:58:07;146446.06;;;19.03;37.70
14689;BME280;7432;48.728;9.154;2023-05-17T11:00:37;146947.16;;;21.10;34.23
14689;BME280;7432;48.728;9.154;2023-05-17T11:03:11;147021.56;;;21.41;33.54
14689;BME280;7432;48.728;9.154;2023-05-17T11:05:40;147042.31;;;21.49;33.09
14689;BME280;7432;48.728;9.154;2023-05-17T11:08:15;146787.34;;;20.44;36.28
14689;BME280;7432;48.728;9.154;2023-05-17T11:11:06;146634.97;;;19.81;35.97
14689;BME280;7432;48.728;9.154;2023-05-17T11:13:33;146349.88;;;18.63;38.07
14689;BME280;7432;48.728;9.154;2023-05-17T11:16:03;146193.97;;;17.98;39.75
14689;BME280;7432;48.728;9.154;2023-05-17T11:18:45;146123.41;;;17.69;39.95
14689;BME280;7432;48.728;9.154;2023-05-17T11:21:13;145971.31;;;17.06;42.49
14689;BME280;7432;48.728;9.154;2023-05-17T11:23:41;145902.00;;;16.77;42.05
14689;BME280;7432;48.728;9.154;2023-05-17T11:26:14;145788.91;;;16.30;43.24
14689;BME280;7432;48.728;9.154;2023-05-17T11:28:41;145768.22;;;16.22;44.44
14689;BME280;7432;48.728;9.154;2023-05-17T11:31:08;145657.66;;;15.76;44.07
14689;BME280;7432;48.728;9.154;2023-05-17T11:33:41;145650.34;;;15.73;44.83
14689;BME280;7432;48.728;9.154;2023-05-17T11:36:17;145788.91;;;16.30;43.69
14689;BME280;7432;48.728;9.154;2023-05-17T11:38:47;145796.19;;;16.33;43.84
14689;BME280;7432;48.728;9.154;2023-05-17T11:41:16;145844.84;;;16.53;43.60
14689;BME280;7432;48.728;9.154;2023-05-17T11:43:44;145720.81;;;16.02;43.65
14689;BME280;7432;48.728;9.154;2023-05-17T11:46:17;145633.31;;;15.66;45.20
14689;BME280;7432;48.728;9.154;2023-05-17T11:48:45;145543.41;;;15.28;46.79
14689;BME280;7432;48.728;9.154;2023-05-17T11:51:14;145363.69;;;14.54;48.86
14689;BME280;7432;48.728;9.154;2023-05-17T11:53:40;145345.47;;;14.46;49.58
14689;BME280;7432;48.728;9.154;2023-05-17T11:56:07;145323.63;;;14.37;49.09
14689;BME280;7432;48.728;9.154;2023-05-17T11:58:35;145219.22;;;13.94;50.87
14689;BME280;7432;48.728;9.154;2023-05-17T12:01:02;145150.09;;;13.65;50.91
14689;BME280;7432;48.728;9.154;2023-05-17T12:03:31;145136.75;;;13.59;51.79
14689;BME280;7432;48.728;9.154;2023-05-17T12:06:03;145185.28;;;13.80;52.60
14689;BME280;7432;48.728;9.154;2023-05-17T12:08:32;145209.53;;;13.90;51.73
14689;BME280;7432;48.728;9.154;2023-05-17T12:10:59;145279.91;;;14.19;51.22
14689;BME280;7432;48.728;9.154;2023-05-17T12:13:27;145237.44;;;14.01;50.78
14689;BME280;7432;48.728;9.154;2023-05-17T12:15:55;145181.63;;;13.78;51.29
14689;BME280;7432;48.728;9.154;2023-05-17T12:18:22;145199.81;;;13.86;51.33
14689;BME280;7432;48.728;9.154;2023-05-17T12:20:55;145241.06;;;14.03;51.44
14689;BME280;7432;48.728;9.154;2023-05-17T12:23:27;145236.22;;;14.01;49.60
14689;BME280;7432;48.728;9.154;2023-05-17T12:26:06;145236.22;;;14.01;50.47
14689;BME280;7432;48.728;9.154;2023-05-17T12:28:34;145356.38;;;14.51;49.48
14689;BME280;7432;48.728;9.154;2023-05-17T12:31:01;145377.03;;;14.59;46.80
14689;BME280;7432;48.728;9.154;2023-05-17T12:33:30;145426.84;;;14.80;46.96
14689;BME280;7432;48.728;9.154;2023-05-17T12:35:57;145452.31;;;14.91;46.68
14689;BME280;7432;48.728;9.154;2023-05-17T12:38:25;145612.72;;;15.57;45.64
14689;BME280;7432;48.728;9.154;2023-05-17T12:40:56;145701.38;;;15.94;45.49
14689;BME280;7432;48.728;9.154;2023-05-17T12:43:24;145768.22;;;16.22;46.02
14689;BME280;7432;48.728;9.154;2023-05-17T12:45:51;145719.59;;;16.01;45.23
14689;BME280;7432;48.728;9.154;2023-05-17T12:48:18;145663.72;;;15.78;45.68
14689;BME280;7432;48.728;9.154;2023-05-17T12:50:44;145725.66;;;16.04;47.64
14689;BME280;7432;48.728;9.154;2023-05-17T12:53:13;145643.06;;;15.70;44.99
14689;BME280;7432;48.728;9.154;2023-05-17T12:55:39;145743.94;;;16.12;45.67
14689;BME280;7432;48.728;9.154;2023-05-17T12:58:05;145788.91;;;16.30;45.41
14689;BME280;7432;48.728;9.154;2023-05-17T13:00:33;145720.81;;;16.02;45.27
14689;BME280;7432;48.728;9.154;2023-05-17T13:03:00;145764.56;;;16.20;45.93
14689;BME280;7432;48.728;9.154;2023-05-17T13:05:26;145622.41;;;15.61;45.90
14689;BME280;7432;48.728;9.154;2023-05-17T13:07:52;145523.97;;;15.20;47.11